Time;durP1;ratioP1;P1;durP2;ratioP2;P2;SDS_P1;SDS_P2;PMS_P1;PMS_P2;Temp;Humidity;BMP_temperature;BMP_pressure;BME280_temperature;BME280_humidity;BME280_pressure;Samples;Min_cycle;Max_cycle;Signal;HPM_P1;HPM_P2
2023/10/16 00:00:45;;;;;;;2.73;1.37;;;;;;;;;;5110294;28;20450;-55
2023/10/16 00:03:14;;;;;;;2.10;1.13;;;;;;;;;;5109865;28;20466;-55
2023/10/16 00:05:45;;;;;;;2.13;0.97;;;;;;;;;;5110010;28;20513;-57
2023/10/16 00:08:12;;;;;;;4.03;1.03;;;;;;;;;;5110145;28;20507;-56
2023/10/16 00:10:39;;;;;;;1.70;1.13;;;;;;;;;;5112677;28;20526;-56
2023/10/16 00:13:11;;;;;;;2.23;1.20;;;;;;;;;;5113909;28;20977;-57
2023/10/16 00:15:44;;;;;;;1.83;1.10;;;;;;;;;;5114288;28;20453;-56
2023/10/16 00:18:17;;;;;;;2.87;1.30;;;;;;;;;;5114326;28;20541;-56
2023/10/16 00:20:45;;;;;;;2.77;1.47;;;;;;;;;;5113688;28;20985;-55
2023/10/16 00:23:12;;;;;;;3.00;1.63;;;;;;;;;;5114075;28;20829;-56
2023/10/16 00:25:40;;;;;;;2.07;1.17;;;;;;;;;;5113924;28;21009;-56
2023/10/16 00:28:09;;;;;;;2.90;1.40;;;;;;;;;;5113993;28;20840;-55
2023/10/16 00:30:37;;;;;;;1.90;1.07;;;;;;;;;;5113885;28;20458;-56
2023/10/16 00:33:10;;;;;;;2.33;1.20;;;;;;;;;;5113220;28;20560;-56
2023/10/16 00:35:38;;;;;;;1.67;0.77;;;;;;;;;;5113784;28;20453;-55
2023/10/16 00:38:12;;;;;;;1.80;0.90;;;;;;;;;;5114078;28;20862;-55
2023/10/16 00:40:40;;;;;;;2.10;0.90;;;;;;;;;;5114028;28;20827;-55
2023/10/16 00:43:11;;;;;;;2.07;1.13;;;;;;;;;;5113665;27;21013;-55
2023/10/16 00:45:45;;;;;;;1.40;0.80;;;;;;;;;;5110407;28;20443;-57
2023/10/16 00:48:13;;;;;;;2.50;1.23;;;;;;;;;;5113571;28;20571;-55
2023/10/16 00:50:40;;;;;;;2.20;1.00;;;;;;;;;;5113654;28;20443;-56
2023/10/16 00:53:08;;;;;;;1.77;1.00;;;;;;;;;;5113188;28;20515;-57
2023/10/16 00:55:36;;;;;;;1.70;0.87;;;;;;;;;;5113330;28;20525;-56
2023/10/16 00:58:06;;;;;;;1.57;0.93;;;;;;;;;;5113486;28;20753;-55
2023/10/16 01:00:37;;;;;;;1.60;0.90;;;;;;;;;;5113395;28;20470;-56
2023/10/16 01:03:05;;;;;;;2.93;1.03;;;;;;;;;;5112875;28;20997;-56
2023/10/16 01:05:39;;;;;;;1.70;0.90;;;;;;;;;;5113085;28;20611;-56
2023/10/16 01:08:09;;;;;;;2.23;1.20;;;;;;;;;;5113234;28;21000;-56
2023/10/16 01:10:40;;;;;;;1.90;0.90;;;;;;;;;;5113120;28;20457;-55
2023/10/16 01:13:11;;;;;;;2.40;0.80;;;;;;;;;;5112645;28;20471;-56
2023/10/16 01:15:43;;;;;;;1.63;1.00;;;;;;;;;;5112822;28;20577;-55
2023/10/16 01:18:13;;;;;;;3.13;1.00;;;;;;;;;;5113050;28;20473;-55
2023/10/16 01:20:47;;;;;;;2.90;1.20;;;;;;;;;;5112764;28;20488;-56
2023/10/16 01:23:19;;;;;;;1.63;1.20;;;;;;;;;;5112254;28;20469;-55
2023/10/16 01:25:48;;;;;;;2.50;1.00;;;;;;;;;;5113191;28;20819;-55
2023/10/16 01:28:16;;;;;;;3.00;1.30;;;;;;;;;;5112850;28;20485;-56
2023/10/16 01:30:45;;;;;;;1.80;1.07;;;;;;;;;;5112942;28;20537;-55
2023/10/16 01:33:13;;;;;;;1.87;1.10;;;;;;;;;;5112135;28;21014;-56
2023/10/16 01:35:40;;;;;;;2.90;1.37;;;;;;;;;;5112506;28;20452;-56
2023/10/16 01:38:16;;;;;;;1.77;1.23;;;;;;;;;;5112913;28;20443;-56
2023/10/16 01:41:02;;;;;;;1.93;1.10;;;;;;;;;;5112617;28;20454;-57
2023/10/16 01:43:29;;;;;;;2.57;1.20;;;;;;;;;;5112310;28;20550;-55
2023/10/16 01:45:58;;;;;;;2.50;1.23;;;;;;;;;;5112314;28;21392;-55
2023/10/16 01:48:27;;;;;;;1.77;0.83;;;;;;;;;;5112187;28;20491;-57
2023/10/16 01:50:55;;;;;;;3.23;1.27;;;;;;;;;;5112401;28;20820;-56
2023/10/16 01:53:25;;;;;;;3.47;1.30;;;;;;;;;;5112249;28;20535;-55
2023/10/16 01:55:55;;;;;;;3.30;1.10;;;;;;;;;;5112150;28;20449;-56
2023/10/16 01:58:30;;;;;;;1.70;1.00;;;;;;;;;;5112021;28;20461;-55
2023/10/16 02:00:57;;;;;;;1.97;1.20;;;;;;;;;;5112031;28;20450;-55
2023/10/16 02:03:26;;;;;;;1.87;1.00;;;;;;;;;;5111853;28;20878;-55
2023/10/16 02:05:54;;;;;;;2.00;1.23;;;;;;;;;;5112151;28;20453;-55
2023/10/16 02:08:21;;;;;;;1.70;1.13;;;;;;;;;;5111931;28;20482;-55
2023/10/16 02:10:51;;;;;;;1.80;1.23;;;;;;;;;;5111867;28;20932;-56
2023/10/16 02:13:20;;;;;;;1.90;1.17;;;;;;;;;;5111211;27;20467;-55
2023/10/16 02:15:48;;;;;;;1.83;1.20;;;;;;;;;;5111682;28;20442;-56
2023/10/16 02:18:23;;;;;;;1.80;0.80;;;;;;;;;;5111800;28;20546;-55
2023/10/16 02:20:51;;;;;;;2.20;1.03;;;;;;;;;;5111798;28;20534;-55
2023/10/16 02:23:19;;;;;;;1.70;1.17;;;;;;;;;;5111168;28;21030;-55
2023/10/16 02:25:46;;;;;;;1.53;0.90;;;;;;;;;;5111502;28;20442;-55
2023/10/16 02:28:19;;;;;;;1.80;1.00;;;;;;;;;;5111437;28;20511;-56
2023/10/16 02:30:50;;;;;;;2.63;1.00;;;;;;;;;;5111542;28;20447;-55
2023/10/16 02:33:26;;;;;;;2.40;1.20;;;;;;;;;;5110825;28;20549;-55
2023/10/16 02:35:53;;;;;;;2.03;1.40;;;;;;;;;;5111883;28;20446;-55
2023/10/16 02:38:28;;;;;;;2.20;1.10;;;;;;;;;;5111256;28;20449;-55
2023/10/16 02:41:00;;;;;;;1.60;1.00;;;;;;;;;;5111496;28;20445;-56
2023/10/16 02:43:29;;;;;;;3.27;1.40;;;;;;;;;;5110991;28;20462;-56
2023/10/16 02:46:01;;;;;;;2.13;1.10;;;;;;;;;;5111278;28;20865;-56
2023/10/16 02:48:28;;;;;;;1.70;1.10;;;;;;;;;;5111286;28;20565;-57
2023/10/16 02:50:56;;;;;;;1.40;1.07;;;;;;;;;;5110883;28;20446;-55
2023/10/16 02:53:25;;;;;;;2.20;1.23;;;;;;;;;;5111085;28;20462;-55
2023/10/16 02:55:57;;;;;;;2.77;1.10;;;;;;;;;;5110658;28;20468;-55
2023/10/16 02:58:25;;;;;;;2.47;1.43;;;;;;;;;;5110999;28;20427;-56
2023/10/16 03:00:55;;;;;;;2.00;1.40;;;;;;;;;;5110675;28;20986;-56
2023/10/16 03:03:26;;;;;;;1.40;0.80;;;;;;;;;;5110502;28;20494;-55
2023/10/16 03:05:53;;;;;;;2.93;1.10;;;;;;;;;;5111034;28;20458;-56
2023/10/16 03:08:22;;;;;;;2.20;1.40;;;;;;;;;;5110727;28;21077;-56
2023/10/16 03:10:51;;;;;;;1.70;1.13;;;;;;;;;;5110616;28;20452;-55
2023/10/16 03:13:18;;;;;;;2.37;1.47;;;;;;;;;;5110573;27;20473;-55
2023/10/16 03:15:47;;;;;;;2.40;1.03;;;;;;;;;;5111125;28;20456;-56
2023/10/16 03:18:18;;;;;;;1.97;1.30;;;;;;;;;;5110780;28;20455;-56
2023/10/16 03:20:47;;;;;;;3.00;1.13;;;;;;;;;;5110837;28;20860;-55
2023/10/16 03:23:18;;;;;;;1.90;1.37;;;;;;;;;;5110455;28;20515;-55
2023/10/16 03:25:51;;;;;;;3.33;1.23;;;;;;;;;;5106918;27;20881;-55
2023/10/16 03:28:18;;;;;;;2.37;1.20;;;;;;;;;;5110293;28;20650;-57
2023/10/16 03:30:47;;;;;;;1.80;1.10;;;;;;;;;;5110694;28;20446;-56
2023/10/16 03:33:15;;;;;;;2.07;1.47;;;;;;;;;;5110114;28;20478;-55
2023/10/16 03:35:46;;;;;;;2.00;1.37;;;;;;;;;;5110644;28;20530;-55
2023/10/16 03:38:24;;;;;;;1.67;1.10;;;;;;;;;;5110214;28;20526;-56
2023/10/16 03:40:52;;;;;;;2.70;1.27;;;;;;;;;;5110254;28;20521;-56
2023/10/16 03:43:22;;;;;;;2.60;1.47;;;;;;;;;;5109689;28;21031;-56
2023/10/16 03:45:50;;;;;;;5.90;3.90;;;;;;;;;;5109638;28;20796;-57
2023/10/16 03:48:19;;;;;;;2.57;2.03;;;;;;;;;;5109851;28;21003;-56
2023/10/16 03:50:47;;;;;;;2.07;1.13;;;;;;;;;;5110023;28;20446;-56
2023/10/16 03:53:16;;;;;;;1.60;1.10;;;;;;;;;;5109457;28;20501;-55
2023/10/16 03:55:47;;;;;;;4.03;1.20;;;;;;;;;;5110326;28;20443;-55
2023/10/16 03:58:14;;;;;;;2.50;1.40;;;;;;;;;;5109959;28;20450;-56
2023/10/16 04:00:52;;;;;;;2.47;1.40;;;;;;;;;;5110179;28;20524;-56
2023/10/16 04:03:21;;;;;;;2.53;1.20;;;;;;;;;;5109736;28;20567;-56
2023/10/16 04:05:49;;;;;;;1.83;1.53;;;;;;;;;;5104827;28;20443;-55
2023/10/16 04:08:21;;;;;;;2.17;1.17;;;;;;;;;;5109830;28;20479;-55
2023/10/16 04:10:48;;;;;;;2.33;1.27;;;;;;;;;;5110184;28;20461;-56
2023/10/16 04:13:16;;;;;;;1.87;1.47;;;;;;;;;;5109953;28;20458;-55
2023/10/16 04:18:30;;;;;;;2.40;1.50;;;;;;;;;;5110123;28;20475;-55
2023/10/16 04:21:17;;;;;;;3.43;1.80;;;;;;;;;;5108931;28;20450;-54
2023/10/16 04:23:56;;;;;;;2.10;1.77;;;;;;;;;;5110292;28;20468;-54
2023/10/16 04:26:29;;;;;;;1.80;1.40;;;;;;;;;;5109975;28;20815;-54
2023/10/16 04:31:45;;;;;;;1.97;1.50;;;;;;;;;;5095568;28;20963;-55
2023/10/16 04:34:24;;;;;;;1.93;1.20;;;;;;;;;;5109788;28;20494;-54
2023/10/16 04:36:53;;;;;;;1.97;1.20;;;;;;;;;;5109931;28;20855;-54
2023/10/16 04:47:55;;;;;;;2.53;1.50;;;;;;;;;;5100951;28;20467;-54
2023/10/16 04:50:29;;;;;;;3.30;1.30;;;;;;;;;;5101711;28;20442;-54
2023/10/16 04:53:09;;;;;;;3.57;1.47;;;;;;;;;;5107510;28;20485;-54
2023/10/16 04:55:53;;;;;;;29.17;20.97;;;;;;;;;;5098867;28;20436;-55
2023/10/16 04:58:47;;;;;;;20.70;15.10;;;;;;;;;;5102228;28;20457;-54
2023/10/16 05:07:06;;;;;;;18.37;15.13;;;;;;;;;;5053837;28;20453;-55
2023/10/16 05:10:12;;;;;;;4.53;3.20;;;;;;;;;;5053917;28;20420;-54
2023/10/16 05:16:30;;;;;;;2.90;2.13;;;;;;;;;;5111137;28;20426;-55
2023/10/16 05:18:48;;;;;;;4.00;2.40;;;;;;;;;;5110801;28;20453;-55
2023/10/16 06:16:18;;;;;;;7.70;3.20;;;;;;;;;;5051389;28;20468;-53
2023/10/16 06:18:47;;;;;;;2.33;1.97;;;;;;;;;;5051500;28;20528;-55
2023/10/16 06:21:15;;;;;;;3.50;2.50;;;;;;;;;;5051180;28;20536;-53
2023/10/16 06:23:48;;;;;;;8.10;5.97;;;;;;;;;;5050906;28;20556;-52
2023/10/16 06:26:15;;;;;;;4.10;3.70;;;;;;;;;;5051262;28;20457;-54
2023/10/16 06:28:48;;;;;;;3.43;2.57;;;;;;;;;;5051010;28;20512;-55
2023/10/16 06:31:22;;;;;;;4.53;3.17;;;;;;;;;;5050750;28;20445;-55
2023/10/16 06:33:54;;;;;;;2.80;1.43;;;;;;;;;;5050499;28;20857;-54
2023/10/16 06:36:23;;;;;;;10.47;7.67;;;;;;;;;;5051260;28;20528;-55
2023/10/16 06:38:51;;;;;;;8.60;5.53;;;;;;;;;;5050865;28;20526;-55
2023/10/16 06:41:19;;;;;;;5.33;3.30;;;;;;;;;;5050481;28;20528;-56
2023/10/16 06:43:48;;;;;;;3.10;1.97;;;;;;;;;;5050727;28;20524;-53
2023/10/16 06:46:21;;;;;;;4.20;2.80;;;;;;;;;;5051456;28;20520;-52
2023/10/16 06:48:49;;;;;;;4.27;3.03;;;;;;;;;;5051169;28;20493;-53
2023/10/16 06:51:22;;;;;;;2.97;2.03;;;;;;;;;;5051015;28;20548;-54
2023/10/16 06:53:49;;;;;;;4.90;2.83;;;;;;;;;;5050587;28;20465;-52
2023/10/16 06:56:27;;;;;;;4.03;3.20;;;;;;;;;;5051029;28;20499;-52
2023/10/16 06:58:56;;;;;;;4.00;3.10;;;;;;;;;;5050290;28;20445;-56
2023/10/16 07:01:25;;;;;;;4.87;3.10;;;;;;;;;;5050578;28;20449;-53
2023/10/16 07:03:54;;;;;;;4.23;3.17;;;;;;;;;;5050495;28;20519;-53
2023/10/16 07:06:24;;;;;;;5.83;3.30;;;;;;;;;;5044909;28;20449;-54
2023/10/16 07:08:52;;;;;;;4.73;3.67;;;;;;;;;;5050235;28;20573;-53
2023/10/16 07:11:21;;;;;;;7.20;4.60;;;;;;;;;;5050331;28;20437;-53
2023/10/16 07:13:49;;;;;;;4.20;3.47;;;;;;;;;;5050086;28;20465;-52
2023/10/16 07:16:16;;;;;;;4.70;3.00;;;;;;;;;;5050967;28;20532;-54
2023/10/16 07:18:43;;;;;;;5.27;3.30;;;;;;;;;;5050074;28;20521;-53
2023/10/16 07:21:17;;;;;;;2.73;1.80;;;;;;;;;;5049760;28;20935;-54
2023/10/16 07:23:46;;;;;;;2.60;2.20;;;;;;;;;;5049822;28;20473;-54
2023/10/16 07:26:16;;;;;;;3.57;2.20;;;;;;;;;;5050361;28;20477;-55
2023/10/16 07:28:48;;;;;;;6.60;2.43;;;;;;;;;;5050440;28;20477;-52
2023/10/16 07:31:16;;;;;;;6.73;2.67;;;;;;;;;;5050314;28;20540;-53
2023/10/16 07:33:45;;;;;;;3.50;1.83;;;;;;;;;;5049400;28;20564;-55
2023/10/16 07:36:12;;;;;;;3.10;2.30;;;;;;;;;;5049826;28;20502;-53
2023/10/16 07:38:40;;;;;;;11.17;8.00;;;;;;;;;;5050462;28;20872;-54
2023/10/16 07:41:12;;;;;;;10.47;8.17;;;;;;;;;;5050193;28;20503;-54
2023/10/16 07:43:45;;;;;;;9.27;8.37;;;;;;;;;;5049638;28;20997;-55
2023/10/16 07:46:28;;;;;;;8.43;7.50;;;;;;;;;;5050061;28;20449;-54
2023/10/16 07:48:56;;;;;;;7.07;6.47;;;;;;;;;;5049640;28;20481;-53
2023/10/16 07:51:25;;;;;;;9.40;7.50;;;;;;;;;;5049707;28;20449;-55
2023/10/16 07:53:53;;;;;;;10.03;7.10;;;;;;;;;;5049141;28;20542;-54
2023/10/16 07:56:28;;;;;;;7.80;6.97;;;;;;;;;;5049984;28;20516;-54
2023/10/16 07:58:58;;;;;;;11.77;8.33;;;;;;;;;;5049732;28;20436;-53
2023/10/16 08:01:41;;;;;;;6.70;5.83;;;;;;;;;;5049429;28;20441;-53
2023/10/16 08:04:19;;;;;;;6.07;5.17;;;;;;;;;;5048246;28;20469;-54
2023/10/16 08:06:47;;;;;;;5.63;5.13;;;;;;;;;;5049664;28;20445;-56
2023/10/16 08:09:48;;;;;;;7.30;5.10;;;;;;;;;;5049478;28;20579;-57
2023/10/16 08:12:19;;;;;;;7.23;5.50;;;;;;;;;;5049834;28;20499;-53
2023/10/16 08:14:46;;;;;;;5.23;4.73;;;;;;;;;;5049999;28;20875;-55
2023/10/16 08:17:17;;;;;;;4.80;4.40;;;;;;;;;;5050188;28;20859;-54
2023/10/16 08:19:44;;;;;;;5.10;3.73;;;;;;;;;;5049307;28;20936;-54
2023/10/16 08:22:13;;;;;;;4.43;3.53;;;;;;;;;;5049515;28;20464;-54
2023/10/16 08:24:44;;;;;;;3.57;3.27;;;;;;;;;;5049383;28;20464;-55
2023/10/16 08:27:19;;;;;;;3.07;2.13;;;;;;;;;;5049813;28;20522;-54
2023/10/16 08:29:54;;;;;;;3.97;2.77;;;;;;;;;;5049511;28;20488;-55
2023/10/16 08:35:10;;;;;;;4.50;2.70;;;;;;;;;;5053442;28;20527;-53
2023/10/16 08:37:40;;;;;;;4.30;2.70;;;;;;;;;;5053429;28;20962;-54
2023/10/16 08:40:19;;;;;;;2.50;2.10;;;;;;;;;;5053268;28;20935;-52
2023/10/16 08:42:48;;;;;;;4.40;2.53;;;;;;;;;;5052769;28;20495;-55
2023/10/16 08:45:23;;;;;;;4.43;2.90;;;;;;;;;;5052793;28;20493;-54
2023/10/16 08:47:52;;;;;;;4.17;2.43;;;;;;;;;;5053157;28;20867;-55
2023/10/16 08:50:32;;;;;;;2.90;2.10;;;;;;;;;;5052864;28;20480;-53
2023/10/16 08:53:05;;;;;;;4.23;2.60;;;;;;;;;;5052582;28;20471;-55
2023/10/16 08:55:34;;;;;;;8.70;2.80;;;;;;;;;;5052906;28;20559;-55
2023/10/16 08:58:04;;;;;;;3.30;2.07;;;;;;;;;;5053201;28;20528;-55
2023/10/16 09:00:34;;;;;;;2.93;2.27;;;;;;;;;;5052869;28;20509;-53
2023/10/16 09:03:04;;;;;;;7.23;2.67;;;;;;;;;;5052440;28;20445;-56
2023/10/16 09:05:32;;;;;;;4.00;2.83;;;;;;;;;;5052676;28;20469;-55
2023/10/16 09:07:59;;;;;;;4.37;2.63;;;;;;;;;;5052429;28;20506;-56
2023/10/16 09:10:30;;;;;;;4.50;2.47;;;;;;;;;;5052283;28;20521;-53
2023/10/16 09:13:13;;;;;;;3.17;2.50;;;;;;;;;;5052216;28;20905;-53
2023/10/16 09:15:45;;;;;;;2.47;1.83;;;;;;;;;;5052279;28;20452;-55
2023/10/16 09:18:13;;;;;;;4.37;2.30;;;;;;;;;;5051266;28;20452;-56
2023/10/16 09:20:41;;;;;;;2.97;2.17;;;;;;;;;;5051433;28;20500;-53
2023/10/16 09:23:13;;;;;;;2.40;2.00;;;;;;;;;;5051721;28;20544;-52
2023/10/16 09:25:43;;;;;;;2.47;2.00;;;;;;;;;;5052016;28;20550;-53
2023/10/16 09:28:18;;;;;;;3.90;2.23;;;;;;;;;;5052365;28;21022;-53
2023/10/16 09:30:48;;;;;;;3.13;2.40;;;;;;;;;;5051900;28;20515;-52
2023/10/16 09:33:16;;;;;;;4.27;3.00;;;;;;;;;;5051667;28;20462;-51
2023/10/16 09:35:44;;;;;;;3.70;2.40;;;;;;;;;;5052299;28;20525;-53
2023/10/16 09:38:17;;;;;;;3.57;2.20;;;;;;;;;;5052166;28;21236;-53
2023/10/16 09:40:45;;;;;;;2.50;2.10;;;;;;;;;;5051479;28;20451;-53
2023/10/16 09:43:24;;;;;;;3.83;1.87;;;;;;;;;;5050762;28;20513;-52
2023/10/16 09:46:21;;;;;;;2.67;2.00;;;;;;;;;;5052417;28;20442;-53
2023/10/16 09:48:44;;;;;;;9.60;5.80;;;;;;;;;;5051703;28;20473;-56
2023/10/16 09:51:12;;;;;;;3.87;2.50;;;;;;;;;;5051823;28;20816;-53
2023/10/16 09:53:40;;;;;;;4.13;2.40;;;;;;;;;;5050954;28;20491;-53
2023/10/16 09:56:09;;;;;;;6.73;5.00;;;;;;;;;;5052030;28;20445;-53
2023/10/16 09:58:39;;;;;;;4.97;3.83;;;;;;;;;;5052175;28;20455;-53
2023/10/16 10:01:13;;;;;;;3.00;2.23;;;;;;;;;;5049818;28;20442;-53
2023/10/16 10:03:42;;;;;;;3.43;2.90;;;;;;;;;;5051723;28;20571;-55
2023/10/16 10:06:20;;;;;;;2.77;2.37;;;;;;;;;;5051630;28;20445;-53
2023/10/16 10:09:20;;;;;;;3.70;1.73;;;;;;;;;;5051747;28;20484;-53
2023/10/16 10:11:44;;;;;;;3.53;2.13;;;;;;;;;;5051753;28;20468;-54
2023/10/16 10:14:26;;;;;;;2.70;2.47;;;;;;;;;;5051309;28;20845;-53
2023/10/16 10:16:57;;;;;;;2.70;1.60;;;;;;;;;;5051401;28;20927;-53
2023/10/16 10:19:32;;;;;;;3.70;2.10;;;;;;;;;;5051323;28;20883;-53
2023/10/16 10:22:05;;;;;;;3.70;2.27;;;;;;;;;;5051065;28;20445;-53
2023/10/16 10:24:34;;;;;;;2.67;2.47;;;;;;;;;;5051598;28;20461;-53
2023/10/16 10:27:04;;;;;;;4.17;2.20;;;;;;;;;;5051563;28;20477;-53
2023/10/16 10:29:32;;;;;;;2.60;1.87;;;;;;;;;;5051069;28;20524;-54
2023/10/16 10:32:12;;;;;;;3.10;2.27;;;;;;;;;;5050812;28;20445;-54
2023/10/16 10:34:39;;;;;;;1.90;1.50;;;;;;;;;;5050850;28;20571;-53
2023/10/16 10:37:22;;;;;;;3.17;2.27;;;;;;;;;;5050987;28;20446;-52
2023/10/16 10:39:49;;;;;;;2.73;2.20;;;;;;;;;;5050682;28;20473;-54
2023/10/16 10:42:26;;;;;;;4.80;2.80;;;;;;;;;;5050942;28;20539;-53
2023/10/16 10:45:17;;;;;;;3.20;2.10;;;;;;;;;;5050866;28;20461;-53
2023/10/16 10:47:46;;;;;;;3.83;2.30;;;;;;;;;;5050612;28;20441;-53
2023/10/16 10:50:14;;;;;;;3.07;2.30;;;;;;;;;;5050652;28;20477;-52
2023/10/16 10:52:43;;;;;;;1.90;1.50;;;;;;;;;;5050736;28;20442;-53
2023/10/16 10:55:21;;;;;;;2.70;1.97;;;;;;;;;;5050185;28;20469;-53
2023/10/16 10:57:55;;;;;;;3.13;1.90;;;;;;;;;;5050624;28;20531;-53
2023/10/16 11:00:43;;;;;;;2.50;1.73;;;;;;;;;;5050403;28;20441;-53
2023/10/16 11:03:22;;;;;;;2.90;2.00;;;;;;;;;;5048828;28;20540;-55
2023/10/16 11:05:50;;;;;;;2.47;1.47;;;;;;;;;;5050673;28;20449;-53
2023/10/16 11:08:25;;;;;;;2.63;1.70;;;;;;;;;;5050490;28;20473;-53
2023/10/16 11:10:54;;;;;;;2.83;2.20;;;;;;;;;;5050158;28;20475;-53
2023/10/16 11:13:22;;;;;;;2.03;1.53;;;;;;;;;;5050034;28;20947;-53
2023/10/16 11:15:52;;;;;;;3.17;2.00;;;;;;;;;;5050216;28;20441;-53
2023/10/16 11:18:21;;;;;;;3.97;2.40;;;;;;;;;;5050327;28;20441;-53
2023/10/16 11:20:49;;;;;;;2.70;2.23;;;;;;;;;;5050060;28;20433;-53
2023/10/16 11:23:17;;;;;;;2.77;2.10;;;;;;;;;;5049907;28;20524;-53
2023/10/16 11:25:45;;;;;;;4.90;1.90;;;;;;;;;;5050012;28;20449;-53
2023/10/16 11:28:17;;;;;;;2.13;1.80;;;;;;;;;;5050286;28;20449;-53
2023/10/16 11:30:49;;;;;;;4.07;2.10;;;;;;;;;;5049918;28;20484;-54
2023/10/16 11:33:27;;;;;;;3.00;2.20;;;;;;;;;;5049744;28;20453;-54
2023/10/16 11:36:02;;;;;;;2.80;2.00;;;;;;;;;;5096907;22;21088;-90
2023/10/16 11:38:30;;;;;;;3.93;1.70;;;;;;;;;;5076145;28;20508;-89
2023/10/16 11:41:04;;;;;;;2.17;1.67;;;;;;;;;;5077664;28;20502;-89
2023/10/16 11:43:32;;;;;;;2.20;1.47;;;;;;;;;;5078278;28;20446;-90
2023/10/16 11:46:05;;;;;;;2.43;1.80;;;;;;;;;;5075997;28;20880;-89
2023/10/16 11:48:42;;;;;;;3.97;1.60;;;;;;;;;;5101538;22;20997;-53
2023/10/16 11:51:15;;;;;;;2.30;1.40;;;;;;;;;;5091281;28;20471;-55
2023/10/16 11:53:43;;;;;;;2.17;1.47;;;;;;;;;;5091207;28;20451;-55
2023/10/16 11:56:13;;;;;;;2.33;1.20;;;;;;;;;;5110970;28;20470;-55
2023/10/16 11:58:40;;;;;;;1.93;1.40;;;;;;;;;;5111234;28;20447;-55
2023/10/16 12:01:11;;;;;;;4.70;2.10;;;;;;;;;;5111744;28;20491;-56
2023/10/16 12:03:40;;;;;;;4.10;2.23;;;;;;;;;;5111247;28;21031;-55
2023/10/16 12:06:10;;;;;;;3.17;1.90;;;;;;;;;;5113454;28;20473;-61
2023/10/16 12:08:40;;;;;;;2.43;1.60;;;;;;;;;;5115886;28;20442;-55
2023/10/16 12:11:08;;;;;;;3.10;1.50;;;;;;;;;;5115233;28;20614;-57
2023/10/16 12:13:36;;;;;;;2.17;1.40;;;;;;;;;;5116497;28;20438;-56
2023/10/16 12:16:05;;;;;;;2.17;1.47;;;;;;;;;;5116398;28;20878;-55
2023/10/16 12:18:32;;;;;;;3.07;1.73;;;;;;;;;;5116467;28;20450;-55
2023/10/16 12:21:05;;;;;;;2.93;1.50;;;;;;;;;;5115332;28;20813;-58
2023/10/16 12:23:38;;;;;;;2.13;1.67;;;;;;;;;;5114813;28;20524;-55
2023/10/16 12:26:07;;;;;;;4.13;1.90;;;;;;;;;;5114436;28;20472;-56
2023/10/16 12:28:34;;;;;;;2.10;1.40;;;;;;;;;;5114724;28;20446;-55
2023/10/16 12:31:02;;;;;;;2.90;1.80;;;;;;;;;;5114090;28;20539;-55
2023/10/16 12:33:30;;;;;;;2.33;1.70;;;;;;;;;;5114051;28;20813;-56
2023/10/16 12:36:01;;;;;;;3.23;1.23;;;;;;;;;;5114094;28;20984;-55
2023/10/16 12:38:29;;;;;;;2.63;1.33;;;;;;;;;;5114303;28;20457;-55
2023/10/16 12:40:58;;;;;;;2.23;1.50;;;;;;;;;;5113854;28;20993;-54
2023/10/16 12:43:29;;;;;;;2.30;1.43;;;;;;;;;;5114037;28;20941;-57
2023/10/16 12:45:57;;;;;;;2.63;1.40;;;;;;;;;;5114123;28;20972;-56
2023/10/16 12:48:28;;;;;;;2.07;1.27;;;;;;;;;;5113957;28;20526;-55
2023/10/16 12:50:59;;;;;;;2.60;1.43;;;;;;;;;;5113810;28;21024;-55
2023/10/16 12:53:26;;;;;;;2.97;1.57;;;;;;;;;;5113792;28;20446;-55
2023/10/16 12:55:58;;;;;;;2.17;1.67;;;;;;;;;;5113927;28;20787;-56
2023/10/16 12:58:26;;;;;;;2.40;1.30;;;;;;;;;;5110699;28;20556;-57
2023/10/16 13:00:57;;;;;;;2.73;1.50;;;;;;;;;;5098100;28;20451;-57
2023/10/16 13:03:24;;;;;;;2.10;1.47;;;;;;;;;;5104633;28;20449;-56
2023/10/16 13:05:52;;;;;;;2.47;1.20;;;;;;;;;;5112546;28;20466;-56
2023/10/16 13:08:21;;;;;;;2.23;1.10;;;;;;;;;;5113664;28;20530;-54
2023/10/16 13:10:50;;;;;;;2.30;1.33;;;;;;;;;;5112811;28;20478;-56
2023/10/16 13:13:23;;;;;;;3.07;1.60;;;;;;;;;;5109201;28;20533;-55
2023/10/16 13:15:54;;;;;;;1.90;1.30;;;;;;;;;;5100997;28;20459;-56
2023/10/16 13:18:27;;;;;;;2.30;1.33;;;;;;;;;;5101489;28;20520;-56
2023/10/16 13:20:57;;;;;;;2.20;1.30;;;;;;;;;;5105024;28;20435;-56
2023/10/16 13:23:25;;;;;;;2.80;1.17;;;;;;;;;;5103274;28;20526;-56
2023/10/16 13:25:56;;;;;;;1.83;1.00;;;;;;;;;;5102280;28;20889;-57
2023/10/16 13:28:25;;;;;;;3.07;1.60;;;;;;;;;;5112071;28;20481;-55
2023/10/16 13:30:53;;;;;;;1.70;1.00;;;;;;;;;;5113068;28;20547;-55
2023/10/16 13:33:20;;;;;;;2.83;1.00;;;;;;;;;;5113142;28;20474;-55
2023/10/16 13:35:47;;;;;;;1.97;1.13;;;;;;;;;;5113329;28;20463;-56
2023/10/16 13:38:18;;;;;;;3.07;1.50;;;;;;;;;;5113050;28;20439;-56
2023/10/16 13:40:46;;;;;;;2.70;1.37;;;;;;;;;;5113274;28;20434;-56
2023/10/16 13:43:17;;;;;;;2.37;1.37;;;;;;;;;;5111942;28;20442;-54
2023/10/16 13:45:46;;;;;;;3.90;1.70;;;;;;;;;;5110838;28;20474;-55
2023/10/16 13:48:16;;;;;;;2.90;1.80;;;;;;;;;;5107165;28;20769;-56
2023/10/16 13:50:47;;;;;;;3.53;1.77;;;;;;;;;;5111512;28;20493;-55
2023/10/16 13:53:15;;;;;;;4.67;2.70;;;;;;;;;;5112865;28;20442;-56
2023/10/16 13:55:42;;;;;;;3.73;2.40;;;;;;;;;;5112462;28;20520;-56
2023/10/16 13:58:10;;;;;;;3.10;2.00;;;;;;;;;;5112145;28;20447;-53
2023/10/16 14:00:38;;;;;;;2.47;1.97;;;;;;;;;;5111115;28;20530;-54
2023/10/16 14:03:08;;;;;;;1.97;1.30;;;;;;;;;;5109877;28;20527;-54
2023/10/16 14:05:38;;;;;;;3.90;1.67;;;;;;;;;;5112114;28;20498;-54
2023/10/16 14:08:09;;;;;;;2.37;1.70;;;;;;;;;;5112420;28;20524;-54
2023/10/16 14:10:38;;;;;;;2.50;1.63;;;;;;;;;;5112551;28;20487;-54
2023/10/16 14:13:18;;;;;;;2.80;1.67;;;;;;;;;;5112243;28;20466;-54
2023/10/16 14:15:46;;;;;;;2.87;1.87;;;;;;;;;;5112147;28;20545;-55
2023/10/16 14:18:16;;;;;;;2.83;1.30;;;;;;;;;;5109940;28;20820;-54
2023/10/16 14:20:46;;;;;;;2.60;1.37;;;;;;;;;;5106192;28;20450;-55
2023/10/16 14:23:13;;;;;;;2.03;1.20;;;;;;;;;;5108455;28;20529;-54
2023/10/16 14:25:47;;;;;;;2.17;1.40;;;;;;;;;;5111555;28;20511;-54
2023/10/16 14:28:32;;;;;;;2.07;1.20;;;;;;;;;;5109140;28;20888;-56
2023/10/16 14:31:00;;;;;;;3.43;1.73;;;;;;;;;;5111732;28;20486;-55
2023/10/16 14:33:30;;;;;;;3.50;1.80;;;;;;;;;;5111795;28;20442;-55
2023/10/16 14:35:58;;;;;;;3.37;2.07;;;;;;;;;;5112049;28;20926;-56
2023/10/16 14:38:25;;;;;;;2.37;1.47;;;;;;;;;;5111985;28;20517;-55
2023/10/16 14:40:55;;;;;;;2.70;1.80;;;;;;;;;;5111482;28;20527;-57
2023/10/16 14:43:23;;;;;;;3.53;1.77;;;;;;;;;;5111530;28;20478;-57
2023/10/16 14:45:53;;;;;;;2.50;1.60;;;;;;;;;;5111553;28;21036;-53
2023/10/16 14:48:22;;;;;;;3.00;1.30;;;;;;;;;;5111639;28;20550;-54
2023/10/16 14:50:51;;;;;;;6.83;1.73;;;;;;;;;;5111596;28;20511;-56
2023/10/16 14:53:20;;;;;;;5.43;1.83;;;;;;;;;;5111330;28;20522;-55
2023/10/16 14:55:49;;;;;;;3.00;1.30;;;;;;;;;;5110951;28;20554;-56
2023/10/16 14:58:18;;;;;;;2.57;1.37;;;;;;;;;;5109663;28;20877;-54
2023/10/16 15:00:48;;;;;;;2.50;1.60;;;;;;;;;;5108275;28;20434;-57
2023/10/16 15:03:16;;;;;;;2.60;1.73;;;;;;;;;;5103279;28;20454;-56
2023/10/16 15:05:44;;;;;;;2.40;1.43;;;;;;;;;;5103229;28;20463;-55
2023/10/16 15:08:13;;;;;;;2.50;1.90;;;;;;;;;;5099460;27;20465;-55
2023/10/16 15:10:43;;;;;;;4.63;2.43;;;;;;;;;;5108133;28;20531;-55
2023/10/16 15:13:14;;;;;;;4.47;1.90;;;;;;;;;;5108909;28;20521;-56
2023/10/16 15:15:41;;;;;;;2.73;1.97;;;;;;;;;;5111337;28;20485;-55
2023/10/16 15:18:09;;;;;;;3.63;2.57;;;;;;;;;;5107601;28;20951;-54
2023/10/16 15:20:38;;;;;;;3.27;2.90;;;;;;;;;;5103174;28;20785;-57
2023/10/16 15:23:09;;;;;;;3.13;2.47;;;;;;;;;;5107275;28;20442;-55
2023/10/16 15:25:38;;;;;;;3.17;2.53;;;;;;;;;;5102909;28;20833;-56
2023/10/16 15:28:06;;;;;;;4.17;3.70;;;;;;;;;;5106551;28;20511;-55
2023/10/16 15:30:34;;;;;;;4.93;3.97;;;;;;;;;;5110493;28;20470;-54
2023/10/16 15:33:02;;;;;;;4.00;2.83;;;;;;;;;;5108202;28;20475;-54
2023/10/16 15:35:29;;;;;;;3.03;2.50;;;;;;;;;;5105563;28;20470;-54
2023/10/16 15:37:57;;;;;;;4.17;2.70;;;;;;;;;;5103334;28;20490;-56
2023/10/16 15:40:26;;;;;;;3.30;2.30;;;;;;;;;;5105230;28;20521;-55
2023/10/16 15:42:59;;;;;;;3.90;3.40;;;;;;;;;;5111124;28;20449;-55
2023/10/16 15:45:26;;;;;;;3.90;1.90;;;;;;;;;;5099427;28;20484;-56
2023/10/16 15:47:59;;;;;;;5.63;2.97;;;;;;;;;;5111104;28;20449;-54
2023/10/16 15:50:28;;;;;;;2.00;1.17;;;;;;;;;;5111350;28;20443;-55
2023/10/16 15:52:57;;;;;;;2.90;1.70;;;;;;;;;;5111139;28;20443;-55
2023/10/16 15:55:24;;;;;;;2.20;1.53;;;;;;;;;;5111929;28;20462;-55
2023/10/16 15:57:52;;;;;;;3.30;1.83;;;;;;;;;;5109632;28;20804;-54
2023/10/16 16:00:25;;;;;;;2.70;1.60;;;;;;;;;;5092179;28;20477;-54
2023/10/16 16:02:53;;;;;;;2.90;2.00;;;;;;;;;;5091508;28;20447;-55
2023/10/16 16:05:22;;;;;;;2.97;2.10;;;;;;;;;;5092495;28;20459;-54
2023/10/16 16:07:50;;;;;;;9.20;5.57;;;;;;;;;;5092255;28;20457;-54
2023/10/16 16:10:17;;;;;;;4.87;3.70;;;;;;;;;;5092721;28;20443;-54
2023/10/16 16:12:45;;;;;;;21.10;17.60;;;;;;;;;;5092948;28;20507;-54
2023/10/16 16:15:16;;;;;;;11.00;9.47;;;;;;;;;;5093003;28;20465;-54
2023/10/16 16:17:45;;;;;;;6.63;4.07;;;;;;;;;;5093186;28;20458;-54
2023/10/16 16:20:15;;;;;;;2.70;1.93;;;;;;;;;;5092273;28;20489;-54
2023/10/16 16:22:43;;;;;;;2.77;2.30;;;;;;;;;;5092290;28;20443;-56
2023/10/16 16:25:12;;;;;;;3.47;1.87;;;;;;;;;;5103442;28;20545;-52